Time;durP1;ratioP1;P1;durP2;ratioP2;P2;SDS_P1;SDS_P2;PMS_P1;PMS_P2;Temp;Humidity;BMP_temperature;BMP_pressure;BME280_temperature;BME280_humidity;BME280_pressure;Samples;Min_cycle;Max_cycle;Signal;HPM_P1;HPM_P2
2022/04/22 00:00:37;;;;;;;7.68;6.05;;;;;;;11.36;62.08;99600.84;5073418;28;20049;-77
2022/04/22 00:03:06;;;;;;;7.82;6.55;;;;;;;11.40;61.87;99598.16;5073008;28;20064;-77
2022/04/22 00:05:33;;;;;;;8.07;5.93;;;;;;;11.41;61.92;99608.19;5073296;28;20052;-77
2022/04/22 00:08:01;;;;;;;7.30;6.25;;;;;;;11.45;61.76;99598.78;5073463;28;20466;-77
2022/04/22 00:10:29;;;;;;;7.10;6.35;;;;;;;11.50;62.06;99601.34;5073378;28;20512;-77
2022/04/22 00:13:00;;;;;;;7.22;5.80;;;;;;;11.54;61.86;99599.50;5072708;28;20053;-76
2022/04/22 00:15:28;;;;;;;9.70;5.97;;;;;;;11.55;61.74;99597.56;5073119;28;20071;-77
2022/04/22 00:17:56;;;;;;;7.15;6.45;;;;;;;11.56;61.56;99591.63;5072328;28;20060;-77
2022/04/22 00:20:24;;;;;;;7.57;6.22;;;;;;;11.58;61.69;99596.84;5071283;28;20059;-77
2022/04/22 00:22:51;;;;;;;7.43;6.25;;;;;;;11.58;61.34;99594.06;5071946;28;20416;-77
2022/04/22 00:25:19;;;;;;;7.32;6.63;;;;;;;11.57;61.75;99595.25;5071430;28;20049;-77
2022/04/22 00:27:46;;;;;;;8.10;6.80;;;;;;;11.54;61.76;99593.94;5072774;28;20045;-78
2022/04/22 00:30:16;;;;;;;8.32;7.40;;;;;;;11.47;62.03;99588.09;5072054;28;20056;-77
2022/04/22 00:32:43;;;;;;;8.75;7.82;;;;;;;11.48;62.03;99583.34;5072041;28;20044;-77
2022/04/22 00:35:12;;;;;;;8.68;7.53;;;;;;;11.43;62.35;99589.13;5071251;28;20067;-77
2022/04/22 00:37:40;;;;;;;9.30;7.82;;;;;;;11.35;62.20;99580.50;5068814;28;20064;-77
2022/04/22 00:40:11;;;;;;;10.02;8.68;;;;;;;11.37;62.34;99582.94;5071794;28;20045;-77
2022/04/22 00:42:39;;;;;;;11.27;9.00;;;;;;;11.33;62.57;99585.59;5070852;28;20091;-77
2022/04/22 00:45:08;;;;;;;9.43;7.82;;;;;;;11.34;62.79;99578.06;5072184;28;20485;-77
2022/04/22 00:47:35;;;;;;;9.50;8.50;;;;;;;11.31;63.11;99573.97;5059913;28;20059;-77
2022/04/22 00:50:03;;;;;;;10.52;8.35;;;;;;;11.32;62.98;99574.81;5070932;28;20056;-77
2022/04/22 00:52:35;;;;;;;9.55;8.55;;;;;;;11.30;63.33;99577.94;5071998;28;20110;-77
2022/04/22 00:55:03;;;;;;;10.70;9.35;;;;;;;11.30;63.47;99577.13;5071707;28;20044;-77
2022/04/22 00:57:32;;;;;;;10.18;9.05;;;;;;;11.30;63.44;99572.34;5072193;28;20080;-77
2022/04/22 01:00:01;;;;;;;11.10;8.88;;;;;;;11.34;63.36;99561.34;5071902;28;20405;-77
2022/04/22 01:02:28;;;;;;;10.25;8.70;;;;;;;11.35;63.19;99555.41;5066769;28;20048;-77
2022/04/22 01:10:28;;;;;;;10.73;9.20;;;;;;;11.40;63.24;99542.41;5076477;28;20063;-77
2022/04/22 01:12:56;;;;;;;11.18;9.13;;;;;;;11.41;63.24;99544.06;5070901;28;20056;-77
2022/04/22 01:15:26;;;;;;;10.73;9.63;;;;;;;11.40;63.41;99536.81;5066973;28;20052;-77
2022/04/22 01:17:54;;;;;;;11.85;9.20;;;;;;;11.41;63.29;99535.69;5065547;28;20059;-77
2022/04/22 01:20:22;;;;;;;10.52;9.00;;;;;;;11.41;63.36;99538.47;5074722;28;20057;-78
2022/04/22 01:22:50;;;;;;;12.00;10.63;;;;;;;11.40;63.18;99523.69;5075700;28;20052;-78
2022/04/22 01:25:18;;;;;;;11.77;10.27;;;;;;;11.41;63.01;99524.53;5075570;28;20044;-77
2022/04/22 01:27:50;;;;;;;12.70;10.77;;;;;;;11.42;63.47;99521.38;5075495;28;20037;-78
2022/04/22 01:30:21;;;;;;;12.02;9.85;;;;;;;11.41;63.46;99516.97;5072802;28;20477;-78
2022/04/22 01:32:50;;;;;;;13.05;11.38;;;;;;;11.44;63.28;99515.47;5071223;28;20048;-78
2022/04/22 01:35:20;;;;;;;14.13;10.95;;;;;;;11.44;63.30;99518.25;5076332;28;20040;-78
2022/04/22 01:37:48;;;;;;;13.18;10.85;;;;;;;11.44;62.94;99523.84;5075923;28;20044;-78
2022/04/22 01:40:18;;;;;;;15.27;11.80;;;;;;;11.43;63.14;99517.44;5073877;28;20248;-77
2022/04/22 01:42:45;;;;;;;12.98;11.55;;;;;;;11.43;63.25;99516.63;5073480;28;20048;-77
2022/04/22 01:45:13;;;;;;;14.18;11.93;;;;;;;11.40;63.27;99518.13;5073976;28;20054;-78
2022/04/22 01:47:41;;;;;;;13.32;11.00;;;;;;;11.38;63.30;99517.66;5073541;28;20059;-78
2022/04/22 01:50:09;;;;;;;13.43;11.57;;;;;;;11.34;63.57;99523.13;5072784;28;20048;-77
2022/04/22 01:52:39;;;;;;;13.48;11.07;;;;;;;11.29;63.42;99517.72;5076876;28;20048;-77
2022/04/22 01:55:07;;;;;;;14.52;12.25;;;;;;;11.24;63.76;99517.97;5075807;28;20045;-77
2022/04/22 01:57:35;;;;;;;16.40;12.43;;;;;;;11.19;63.65;99512.59;5076991;28;20408;-77
2022/04/22 02:00:04;;;;;;;13.65;11.73;;;;;;;11.12;63.98;99521.50;5073052;28;20496;-77
2022/04/22 02:02:32;;;;;;;12.50;11.18;;;;;;;11.08;63.98;99512.19;5075685;28;20060;-77
2022/04/22 02:04:59;;;;;;;15.23;12.45;;;;;;;11.05;64.34;99514.88;5076652;28;20048;-77
2022/04/22 02:07:27;;;;;;;14.70;12.60;;;;;;;11.03;64.57;99517.19;5078608;28;20048;-78
2022/04/22 02:09:57;;;;;;;16.27;12.55;;;;;;;11.01;64.76;99508.34;5077724;28;20448;-77
2022/04/22 02:12:25;;;;;;;15.80;13.35;;;;;;;10.91;65.14;99515.13;5075274;28;20056;-77
2022/04/22 02:14:53;;;;;;;15.90;12.32;;;;;;;10.90;65.32;99503.19;5075015;28;20476;-77
2022/04/22 02:17:21;;;;;;;15.02;12.20;;;;;;;10.90;65.14;99496.81;5075096;28;20053;-77
2022/04/22 02:19:48;;;;;;;15.07;12.65;;;;;;;10.87;65.43;99495.50;5070188;28;20053;-77
2022/04/22 02:22:15;;;;;;;14.70;12.50;;;;;;;10.83;65.62;99502.91;5074837;28;20131;-77
2022/04/22 02:24:42;;;;;;;17.42;13.35;;;;;;;10.80;65.64;99506.38;5066941;28;20045;-77
2022/04/22 02:29:56;;;;;;;17.23;13.38;;;;;;;10.76;65.64;99497.06;5080757;28;20068;-77
2022/04/22 02:32:24;;;;;;;16.93;13.17;;;;;;;10.70;65.92;99498.41;5074841;28;20503;-77
2022/04/22 02:34:52;;;;;;;16.75;12.65;;;;;;;10.66;66.36;99501.06;5074390;28;20048;-77
2022/04/22 02:37:19;;;;;;;16.70;13.52;;;;;;;10.61;66.30;99494.91;5073675;28;20048;-77
2022/04/22 02:39:50;;;;;;;15.85;13.23;;;;;;;10.54;66.62;99487.91;5070222;28;20061;-77
2022/04/22 02:47:48;;;;;;;16.15;13.48;;;;;;;10.41;66.76;99491.72;5080724;28;20053;-78
2022/04/22 02:50:15;;;;;;;17.08;13.77;;;;;;;10.41;67.16;99496.50;5071449;28;20059;-77
2022/04/22 02:52:43;;;;;;;19.52;14.77;;;;;;;10.37;67.00;99496.34;5073947;28;20056;-77
2022/04/22 02:55:14;;;;;;;20.55;15.38;;;;;;;10.36;67.20;99494.72;5070792;28;20053;-77
2022/04/22 02:57:43;;;;;;;18.55;15.75;;;;;;;10.30;67.53;99501.63;5071792;28;20045;-77
2022/04/22 03:00:13;;;;;;;17.98;14.20;;;;;;;10.29;67.58;99494.41;5072804;28;20044;-77
2022/04/22 03:02:41;;;;;;;18.35;14.75;;;;;;;10.25;67.62;99494.28;5074009;28;20052;-77
2022/04/22 03:05:13;;;;;;;16.73;13.48;;;;;;;10.22;67.62;99499.69;5072743;28;20053;-77
2022/04/22 03:07:40;;;;;;;19.10;14.68;;;;;;;10.15;67.83;99494.66;5073983;28;20408;-77
2022/04/22 03:10:09;;;;;;;19.88;15.88;;;;;;;10.14;67.88;99490.22;5072640;28;20044;-77
2022/04/22 03:12:36;;;;;;;19.23;14.77;;;;;;;10.09;68.11;99480.09;5074052;28;20060;-77
2022/04/22 03:15:05;;;;;;;18.20;15.23;;;;;;;10.07;68.50;99487.16;5073444;28;20071;-77
2022/04/22 03:17:33;;;;;;;19.08;14.80;;;;;;;10.03;68.43;99486.19;5070008;28;20528;-77
2022/04/22 03:20:01;;;;;;;19.33;15.18;;;;;;;10.02;68.30;99495.72;5073025;28;20435;-77
2022/04/22 03:22:28;;;;;;;18.95;13.93;;;;;;;9.98;68.51;99498.34;5073297;28;20048;-77
2022/04/22 03:24:55;;;;;;;22.85;15.15;;;;;;;9.94;68.60;99500.97;5073768;28;20060;-77
2022/04/22 03:27:22;;;;;;;18.38;14.18;;;;;;;9.91;68.64;99493.31;5063527;28;20045;-77
2022/04/22 03:29:50;;;;;;;19.30;15.75;;;;;;;9.88;68.99;99495.94;5072502;28;20049;-77
2022/04/22 03:32:17;;;;;;;20.23;15.30;;;;;;;9.86;69.23;99493.47;5073549;28;20428;-77
2022/04/22 03:34:48;;;;;;;20.50;15.90;;;;;;;9.83;69.18;99501.69;5073026;28;20051;-77
2022/04/22 03:37:15;;;;;;;19.75;15.57;;;;;;;9.78;69.23;99499.88;5072344;28;20044;-77
2022/04/22 03:39:43;;;;;;;21.55;15.93;;;;;;;9.77;69.23;99492.69;5073534;28;20049;-77
2022/04/22 03:42:11;;;;;;;19.95;16.30;;;;;;;9.75;69.35;99493.03;5071961;28;20052;-77
2022/04/22 03:44:38;;;;;;;18.75;14.63;;;;;;;9.72;69.86;99493.72;5074103;28;20059;-77
2022/04/22 03:47:07;;;;;;;20.80;16.40;;;;;;;9.70;69.94;99487.66;5073334;28;20059;-77
2022/04/22 03:49:35;;;;;;;20.92;16.30;;;;;;;9.72;70.14;99492.88;5072450;28;20535;-77
2022/04/22 03:52:04;;;;;;;20.85;15.65;;;;;;;9.75;70.49;99495.00;5069805;28;20049;-77
2022/04/22 03:54:32;;;;;;;20.67;15.68;;;;;;;9.78;70.16;99491.53;5053906;28;20056;-77
2022/04/22 03:59:44;;;;;;;21.40;16.05;;;;;;;9.91;70.22;99490.53;5079599;28;20511;-77
2022/04/22 04:02:11;;;;;;;18.13;14.98;;;;;;;9.99;70.27;99488.03;5071899;28;20063;-77
2022/04/22 04:04:39;;;;;;;21.92;15.35;;;;;;;10.06;70.30;99488.31;5073367;28;20477;-77
2022/04/22 04:07:07;;;;;;;19.55;15.30;;;;;;;10.15;70.50;99484.34;5073131;28;20052;-77
2022/04/22 04:17:50;;;;;;;19.83;15.93;;;;;;;10.30;69.62;99484.94;5079348;28;20056;-78
2022/04/22 04:23:15;;;;;;;19.85;13.38;;;;;;;10.35;70.12;99482.78;5079185;28;20060;-78
2022/04/22 04:25:43;;;;;;;16.80;13.25;;;;;;;10.42;70.18;99476.69;5065619;28;20048;-78
2022/04/22 04:28:11;;;;;;;20.15;15.02;;;;;;;10.55;70.09;99489.50;5075540;28;20055;-78
2022/04/22 04:30:38;;;;;;;19.98;16.02;;;;;;;10.65;69.86;99484.72;5076005;28;20059;-78
2022/04/22 04:33:06;;;;;;;19.92;15.77;;;;;;;10.76;69.53;99477.56;5075937;28;20409;-78
2022/04/22 04:35:34;;;;;;;19.25;15.20;;;;;;;10.87;68.98;99467.63;5075076;28;20052;-78
2022/04/22 04:38:03;;;;;;;17.33;14.95;;;;;;;10.94;68.66;99465.13;5074989;28;20056;-78
2022/04/22 04:40:30;;;;;;;19.10;16.20;;;;;;;11.02;68.41;99476.53;5074123;28;20394;-78
2022/04/22 04:42:58;;;;;;;20.67;16.38;;;;;;;11.07;68.23;99467.97;5079146;28;20053;-78
2022/04/22 04:45:25;;;;;;;17.88;15.82;;;;;;;11.14;67.77;99468.22;5075116;28;20044;-78
2022/04/22 04:47:52;;;;;;;19.08;15.15;;;;;;;11.20;67.79;99468.81;5074755;28;20051;-78
2022/04/22 04:50:20;;;;;;;18.95;15.52;;;;;;;11.28;67.72;99465.94;5073740;28;20402;-78
2022/04/22 04:52:47;;;;;;;21.42;17.05;;;;;;;11.36;67.53;99462.25;5073984;28;20497;-77
2022/04/22 04:55:16;;;;;;;21.88;17.33;;;;;;;11.38;67.67;99457.16;5071917;28;20059;-77
2022/04/22 04:57:44;;;;;;;21.00;16.88;;;;;;;11.49;67.43;99457.50;5072022;28;20052;-77
2022/04/22 05:00:12;;;;;;;21.83;16.70;;;;;;;11.56;67.18;99456.94;5071387;28;20049;-77
2022/04/22 05:02:40;;;;;;;19.52;16.63;;;;;;;11.59;67.19;99459.06;5070969;28;20425;-77
2022/04/22 05:05:09;;;;;;;20.10;17.10;;;;;;;11.65;66.85;99460.44;5071560;28;20060;-77
2022/04/22 05:07:48;;;;;;;19.77;17.30;;;;;;;11.71;66.64;99447.88;5071151;28;20064;-77
2022/04/22 05:10:18;;;;;;;21.48;16.73;;;;;;;11.75;66.68;99448.81;5070598;28;20063;-78
2022/04/22 05:12:46;;;;;;;20.33;16.95;;;;;;;11.86;66.28;99453.94;5071964;28;20056;-77
2022/04/22 05:15:13;;;;;;;20.17;17.70;;;;;;;11.91;66.26;99450.97;5071282;28;20051;-77
2022/04/22 05:17:41;;;;;;;19.85;16.85;;;;;;;12.00;66.31;99448.88;5070597;28;20052;-77
2022/04/22 05:20:11;;;;;;;19.70;17.00;;;;;;;12.07;65.76;99454.66;5070984;28;20048;-77
2022/04/22 05:22:39;;;;;;;19.92;16.88;;;;;;;12.12;65.94;99451.66;5071581;28;20048;-78
2022/04/22 05:25:09;;;;;;;20.25;17.90;;;;;;;12.22;65.41;99455.13;5070978;28;20044;-77
2022/04/22 05:27:38;;;;;;;19.02;16.20;;;;;;;12.28;64.92;99460.13;5072851;28;20394;-77
2022/04/22 05:32:53;;;;;;;22.58;19.33;;;;;;;12.30;64.86;99446.63;5076404;28;20059;-79
2022/04/22 05:35:21;;;;;;;19.88;17.77;;;;;;;12.35;65.27;99454.78;5076908;28;20052;-78
2022/04/22 05:37:50;;;;;;;21.15;17.35;;;;;;;12.40;64.91;99456.50;5076276;28;20394;-78
2022/04/22 05:40:19;;;;;;;20.80;17.55;;;;;;;12.46;64.97;99463.47;5076533;28;20382;-79
2022/04/22 05:42:49;;;;;;;22.00;17.87;;;;;;;12.50;64.90;99464.41;5079663;28;20059;-79
2022/04/22 05:45:16;;;;;;;;;;;;;;;12.54;65.02;99467.31;5078925;28;20479;-79
2022/04/22 05:47:45;;;;;;;18.63;16.63;;;;;;;12.59;64.82;99462.28;5073764;28;19924;-78
2022/04/22 05:50:14;;;;;;;17.83;15.93;;;;;;;12.68;64.53;99464.97;5077916;28;20048;-78
2022/04/22 05:52:42;;;;;;;18.15;16.33;;;;;;;12.74;64.10;99462.72;5060428;28;20045;-79
2022/04/22 05:55:12;;;;;;;19.90;17.50;;;;;;;12.75;64.14;99465.16;5077955;28;20412;-79
2022/04/22 05:57:39;;;;;;;;;;;;;;;12.79;64.11;99457.69;5078044;28;20052;-78
2022/04/22 06:00:11;;;;;;;18.10;16.15;;;;;;;12.83;63.89;99446.63;5074327;28;19928;-78
2022/04/22 06:02:38;;;;;;;17.38;15.52;;;;;;;12.87;63.41;99446.72;5062162;28;20057;-78
2022/04/22 06:05:06;;;;;;;17.65;15.75;;;;;;;12.92;63.61;99449.28;5071133;28;20056;-78
2022/04/22 06:07:33;;;;;;;16.75;14.95;;;;;;;12.98;63.18;99437.47;5076783;28;20409;-78
2022/04/22 06:12:48;;;;;;;17.50;14.68;;;;;;;13.11;62.66;99438.22;5070706;28;20068;-78
2022/04/22 06:15:16;;;;;;;16.23;14.55;;;;;;;13.17;62.38;99431.22;5070557;28;20056;-79
2022/04/22 06:17:44;;;;;;;15.17;13.57;;;;;;;13.27;62.39;99429.88;5071182;28;20040;-77
2022/04/22 06:20:12;;;;;;;15.98;14.38;;;;;;;13.30;62.25;99440.38;5065026;28;20498;-79
2022/04/22 06:22:39;;;;;;;14.70;13.07;;;;;;;13.50;61.89;99420.91;5074024;28;20083;-79
2022/04/22 06:25:08;;;;;;;15.27;13.45;;;;;;;13.65;61.64;99431.31;5072182;28;20053;-78
2022/04/22 06:27:38;;;;;;;16.02;13.27;;;;;;;13.72;60.86;99425.88;5073244;28;20060;-78
2022/04/22 06:30:09;;;;;;;13.88;12.38;;;;;;;13.90;60.63;99415.13;5072166;28;20056;-78
2022/04/22 06:32:40;;;;;;;12.23;11.00;;;;;;;14.02;60.07;99412.19;5048996;28;20607;-77
2022/04/22 06:35:10;;;;;;;13.73;12.32;;;;;;;14.32;59.25;99414.50;5069392;28;20103;-78
2022/04/22 06:37:38;;;;;;;12.05;10.55;;;;;;;14.50;58.90;99420.50;5071775;28;20425;-79
2022/04/22 06:45:48;;;;;;;11.27;10.23;;;;;;;14.93;57.34;99409.41;5077180;28;20056;-81
2022/04/22 06:48:20;;;;;;;12.30;10.68;;;;;;;15.10;56.48;99402.50;5074551;28;20056;-81
2022/04/22 06:50:48;;;;;;;11.98;10.68;;;;;;;15.27;55.60;99392.84;5070181;28;20041;-80
2022/04/22 06:53:17;;;;;;;10.45;9.45;;;;;;;15.34;55.81;99393.75;5070575;28;20075;-79
2022/04/22 06:55:48;;;;;;;11.57;10.38;;;;;;;15.39;55.13;99406.66;5071736;28;20056;-80
2022/04/22 06:58:17;;;;;;;10.73;9.63;;;;;;;15.46;54.75;99401.19;5069251;28;20045;-79
2022/04/22 07:00:48;;;;;;;11.27;10.07;;;;;;;15.43;55.24;99411.19;5073585;28;20139;-80
2022/04/22 07:03:21;;;;;;;10.38;9.07;;;;;;;15.28;54.59;99408.47;5071628;28;20048;-79
2022/04/22 07:05:51;;;;;;;11.13;9.93;;;;;;;15.29;54.71;99413.72;5069277;28;20072;-78
2022/04/22 07:08:20;;;;;;;10.75;9.63;;;;;;;15.39;54.80;99404.69;5073645;28;20053;-78
2022/04/22 07:10:50;;;;;;;11.27;10.03;;;;;;;15.53;53.64;99403.31;5071604;28;20056;-79
2022/04/22 07:13:18;;;;;;;9.95;8.90;;;;;;;15.81;53.59;99405.81;5074059;28;20485;-79
2022/04/22 07:15:48;;;;;;;10.70;9.18;;;;;;;16.06;52.93;99403.41;5073275;28;20048;-80
2022/04/22 07:18:17;;;;;;;10.85;9.75;;;;;;;16.33;52.64;99401.41;5074284;28;20053;-79
2022/04/22 07:20:48;;;;;;;11.20;10.00;;;;;;;16.54;51.22;99403.69;5073633;28;20057;-79
2022/04/22 07:23:16;;;;;;;10.27;9.27;;;;;;;16.93;51.06;99405.44;5071535;28;20056;-78
2022/04/22 07:25:46;;;;;;;10.48;8.90;;;;;;;17.43;49.82;99394.72;5073794;28;20049;-79
2022/04/22 07:28:14;;;;;;;10.38;9.38;;;;;;;17.66;48.23;99397.34;5075377;28;20049;-80
2022/04/22 07:30:50;;;;;;;11.48;10.23;;;;;;;17.57;47.97;99399.66;5070845;28;20076;-78
2022/04/22 07:33:19;;;;;;;10.80;9.70;;;;;;;17.37;47.74;99399.88;5070196;28;20059;-77
2022/04/22 07:35:49;;;;;;;11.13;9.23;;;;;;;17.24;48.21;99395.75;5068467;28;20044;-78
2022/04/22 07:38:18;;;;;;;10.63;9.43;;;;;;;17.32;48.39;99405.84;5072874;28;20048;-79
2022/04/22 07:40:50;;;;;;;10.43;9.43;;;;;;;18.39;47.13;99376.94;5072473;28;20060;-78
2022/04/22 07:48:53;;;;;;;9.85;8.95;;;;;;;19.97;42.08;99383.00;5075197;28;20052;-79
2022/04/22 07:51:20;;;;;;;10.30;9.10;;;;;;;19.69;41.80;99387.44;5071682;28;20044;-78
2022/04/22 07:53:51;;;;;;;10.20;9.20;;;;;;;19.59;41.63;99374.09;5069359;28;20052;-78
2022/04/22 07:56:18;;;;;;;9.52;8.63;;;;;;;19.23;42.38;99379.72;5072869;28;20052;-78
2022/04/22 07:58:45;;;;;;;9.70;8.70;;;;;;;19.11;42.56;99385.72;5080105;28;20042;-79
2022/04/22 08:01:13;;;;;;;9.32;8.43;;;;;;;18.98;42.87;99391.75;5076540;28;20505;-79
2022/04/22 08:03:40;;;;;;;10.07;9.07;;;;;;;18.78;42.92;99381.97;5072041;28;20060;-78
2022/04/22 08:06:10;;;;;;;9.82;8.85;;;;;;;19.01;42.92;99373.22;5071843;28;20055;-79
2022/04/22 08:08:37;;;;;;;10.85;9.00;;;;;;;18.89;41.94;99385.66;5074479;28;20071;-78
2022/04/22 08:11:05;;;;;;;8.60;7.80;;;;;;;19.08;41.99;99387.34;5070244;28;20401;-81
2022/04/22 08:13:32;;;;;;;9.65;8.63;;;;;;;19.36;42.09;99375.31;5069775;28;20432;-78
2022/04/22 08:16:00;;;;;;;10.15;8.57;;;;;;;20.31;40.33;99374.09;5070892;28;20381;-79
2022/04/22 08:18:27;;;;;;;8.90;7.97;;;;;;;21.27;38.04;99379.38;5070256;28;20047;-80
2022/04/22 08:20:54;;;;;;;9.15;7.72;;;;;;;22.39;35.63;99372.81;5071635;28;20477;-80
2022/04/22 08:23:23;;;;;;;8.25;7.45;;;;;;;22.92;34.89;99371.34;5068211;28;20056;-79
2022/04/22 08:25:50;;;;;;;7.85;7.15;;;;;;;23.64;34.21;99373.19;5067551;28;20063;-78
2022/04/22 08:28:18;;;;;;;8.05;7.25;;;;;;;24.85;32.44;99369.41;5069433;28;20052;-79
2022/04/22 08:30:46;;;;;;;8.07;7.28;;;;;;;25.35;31.27;99376.88;5065628;28;20052;-77
2022/04/22 08:33:13;;;;;;;7.55;6.95;;;;;;;26.08;29.37;99362.47;5066623;28;20055;-76
2022/04/22 08:35:41;;;;;;;6.70;6.10;;;;;;;26.53;28.73;99364.50;5065617;28;20079;-77
2022/04/22 08:38:08;;;;;;;7.80;7.10;;;;;;;26.56;28.28;99372.16;5065115;28;20063;-77
2022/04/22 08:40:38;;;;;;;7.80;7.10;;;;;;;26.46;28.22;99367.59;5068355;28;20056;-79
2022/04/22 08:43:07;;;;;;;8.07;7.35;;;;;;;27.55;26.85;99369.69;5068518;28;20074;-78
2022/04/22 08:45:34;;;;;;;;;;;;;;;27.53;26.67;99352.97;5070992;28;20049;-79
2022/04/22 08:50:54;;;;;;;7.45;6.68;;;;;;;27.37;25.80;99353.06;5064914;28;20064;-77
2022/04/22 08:53:24;;;;;;;7.97;6.75;;;;;;;26.82;26.47;99361.66;5067874;28;20055;-77
2022/04/22 08:55:56;;;;;;;7.07;6.35;;;;;;;25.69;28.05;99372.81;5066547;28;20053;-79
2022/04/22 08:58:26;;;;;;;8.02;7.22;;;;;;;24.64;28.98;99356.41;5068900;28;20067;-79
2022/04/22 09:00:53;;;;;;;8.25;7.45;;;;;;;24.44;28.91;99368.56;5070054;28;20049;-78
2022/04/22 09:03:21;;;;;;;8.30;7.43;;;;;;;24.05;30.02;99360.75;5071428;28;20052;-79
2022/04/22 09:05:48;;;;;;;7.70;7.00;;;;;;;23.50;30.80;99355.13;5074785;28;20511;-78
2022/04/22 09:08:16;;;;;;;8.52;7.82;;;;;;;24.58;30.33;99346.75;5065687;28;20053;-77
2022/04/22 09:10:44;;;;;;;7.65;6.95;;;;;;;25.70;28.89;99343.03;5069535;28;20072;-78
2022/04/22 09:13:24;;;;;;;7.82;7.05;;;;;;;25.84;27.97;99354.06;5068523;28;20063;-77
2022/04/22 09:15:52;;;;;;;8.98;8.07;;;;;;;25.84;28.38;99351.22;5068029;28;20122;-77
2022/04/22 09:18:19;;;;;;;8.77;7.70;;;;;;;25.58;27.88;99344.56;5067073;28;20751;-78
2022/04/22 09:20:47;;;;;;;8.77;7.93;;;;;;;24.58;28.84;99347.56;5071336;28;20044;-76
2022/04/22 09:23:29;;;;;;;8.33;7.63;;;;;;;23.77;29.94;99342.97;5062451;28;20044;-78
2022/04/22 09:25:57;;;;;;;8.15;7.45;;;;;;;23.15;31.21;99350.00;5064864;28;20498;-78
2022/04/22 09:28:25;;;;;;;8.73;7.93;;;;;;;22.37;32.51;99346.91;5069375;28;20295;-78
2022/04/22 09:30:57;;;;;;;9.45;8.55;;;;;;;21.76;33.28;99353.94;5069749;28;20045;-78
2022/04/22 09:33:24;;;;;;;8.52;7.72;;;;;;;21.21;34.18;99341.38;5067423;28;20057;-80
2022/04/22 09:44:56;;;;;;;8.32;7.53;;;;;;;19.78;37.68;99339.84;5069504;28;20123;-80
2022/04/22 09:47:27;;;;;;;8.27;7.47;;;;;;;19.58;37.75;99341.44;5073371;28;20068;-79
2022/04/22 09:49:58;;;;;;;7.85;7.10;;;;;;;19.42;37.82;99337.00;5072841;28;20060;-77
2022/04/22 09:52:26;;;;;;;7.40;6.68;;;;;;;19.25;38.67;99337.78;5071006;28;20067;-77
2022/04/22 09:54:57;;;;;;;8.77;7.38;;;;;;;19.25;38.62;99340.59;5071467;28;20057;-78
2022/04/22 09:57:25;;;;;;;9.15;7.22;;;;;;;19.25;38.72;99335.75;5074175;28;20410;-79
2022/04/22 09:59:54;;;;;;;7.72;6.30;;;;;;;19.26;39.27;99334.56;5070036;28;20044;-78
2022/04/22 10:02:24;;;;;;;;;;;;;;;19.64;39.05;99328.53;5072166;28;20503;-78
2022/04/22 10:04:56;;;;;;;7.45;6.10;;;;;;;20.02;38.13;99329.72;5068558;28;20260;-79
2022/04/22 10:07:32;;;;;;;7.03;6.20;;;;;;;20.83;37.06;99317.72;5067309;28;20405;-79
2022/04/22 10:10:02;;;;;;;6.25;5.63;;;;;;;21.57;35.45;99317.69;5069218;28;20056;-78
2022/04/22 10:12:31;;;;;;;7.18;5.63;;;;;;;21.84;34.78;99312.97;5074423;28;20052;-80
2022/04/22 10:15:02;;;;;;;6.32;5.30;;;;;;;21.80;34.33;99317.88;5071278;28;20065;-79
2022/04/22 10:17:30;;;;;;;6.25;5.65;;;;;;;21.60;34.18;99326.13;5071797;28;20052;-82
2022/04/22 10:19:59;;;;;;;6.18;5.38;;;;;;;21.36;34.42;99313.75;5075005;28;20044;-78
2022/04/22 10:22:31;;;;;;;6.30;5.70;;;;;;;20.99;35.30;99308.75;5072963;28;20053;-80
2022/04/22 10:24:59;;;;;;;5.88;5.28;;;;;;;20.87;35.94;99316.50;5072771;28;20059;-80
2022/04/22 10:27:26;;;;;;;5.78;5.22;;;;;;;20.81;35.91;99315.34;5068650;28;20063;-81
2022/04/22 10:29:57;;;;;;;6.60;5.30;;;;;;;20.68;36.14;99315.00;5066425;28;20063;-81
2022/04/22 10:32:27;;;;;;;6.35;5.63;;;;;;;20.58;35.89;99317.84;5071540;28;20481;-84
2022/04/22 10:34:59;;;;;;;6.60;5.90;;;;;;;20.23;36.20;99322.41;5074471;28;20045;-84
2022/04/22 10:37:28;;;;;;;7.00;6.30;;;;;;;20.20;36.87;99324.03;5075191;28;20139;-81
2022/04/22 10:40:00;;;;;;;6.77;5.57;;;;;;;20.26;36.84;99313.09;5071668;28;20385;-80
2022/04/22 10:42:33;;;;;;;6.95;6.22;;;;;;;20.82;36.61;99308.44;5073624;28;20052;-80
2022/04/22 10:47:49;;;;;;;6.00;5.40;;;;;;;22.50;34.30;99299.72;5072923;28;20063;-79
2022/04/22 10:50:31;;;;;;;5.85;5.20;;;;;;;23.12;32.88;99302.53;5070821;28;20064;-79
2022/04/22 10:53:03;;;;;;;6.40;5.80;;;;;;;23.26;32.12;99308.00;5072875;28;20516;-80
2022/04/22 10:55:36;;;;;;;6.97;6.03;;;;;;;22.95;32.51;99310.88;5071925;28;20052;-78
2022/04/22 10:58:24;;;;;;;7.13;6.25;;;;;;;22.40;33.01;99309.16;5071966;28;20053;-81
2022/04/22 11:00:54;;;;;;;7.57;5.90;;;;;;;22.14;34.05;99300.09;5065067;28;20064;-78
2022/04/22 11:03:25;;;;;;;7.50;6.68;;;;;;;21.88;34.33;99293.91;5069005;28;20485;-78
2022/04/22 11:05:56;;;;;;;7.80;6.95;;;;;;;21.69;35.06;99300.13;5070923;28;20071;-78
2022/04/22 11:08:26;;;;;;;7.38;6.68;;;;;;;21.58;35.43;99299.44;5070290;28;20052;-80
2022/04/22 11:11:15;;;;;;;7.18;6.43;;;;;;;21.32;35.77;99295.97;5051191;28;20409;-79
2022/04/22 11:13:45;;;;;;;7.38;6.68;;;;;;;20.89;36.44;99307.59;5070389;28;20060;-78
2022/04/22 11:16:26;;;;;;;;;;;;;;;20.44;36.80;99302.53;5080090;28;20056;-79
2022/04/22 11:19:26;;;;;;;10.13;7.25;;;;;;;20.06;37.64;99304.28;5082990;28;19920;-79
2022/04/22 11:21:57;;;;;;;7.88;7.07;;;;;;;19.72;38.16;99304.75;5076282;28;20048;-80
2022/04/22 11:24:26;;;;;;;9.27;7.40;;;;;;;19.39;38.95;99292.59;5074264;28;20048;-79
2022/04/22 11:27:02;;;;;;;8.38;7.50;;;;;;;19.12;39.58;99295.00;5075434;28;20045;-80
2022/04/22 11:29:29;;;;;;;9.07;8.18;;;;;;;19.14;39.93;99298.25;5076324;28;20420;-80
2022/04/22 11:32:05;;;;;;;8.50;7.57;;;;;;;19.20;40.00;99288.16;5084161;28;20056;-80
2022/04/22 11:35:09;;;;;;;9.20;7.20;;;;;;;19.16;40.48;99297.84;5078399;28;20439;-80
2022/04/22 11:37:38;;;;;;;7.85;7.05;;;;;;;19.20;40.39;99284.53;5054759;28;20532;-78
2022/04/22 11:40:08;;;;;;;9.57;8.38;;;;;;;19.22;40.16;99294.22;5077684;28;20044;-79
2022/04/22 11:42:43;;;;;;;8.57;7.68;;;;;;;19.26;40.08;99289.38;5078015;28;20056;-79
2022/04/22 11:45:14;;;;;;;8.63;7.60;;;;;;;19.52;40.05;99289.38;5070111;28;20049;-78
2022/04/22 11:47:42;;;;;;;7.90;7.13;;;;;;;19.87;39.24;99283.72;5068369;28;20053;-79
2022/04/22 11:50:17;;;;;;;8.03;7.23;;;;;;;20.13;39.04;99289.31;5078418;28;20052;-80
2022/04/22 11:52:53;;;;;;;8.32;7.53;;;;;;;20.43;38.37;99297.28;5081298;28;20475;-80
2022/04/22 11:55:22;;;;;;;7.60;6.75;;;;;;;20.47;38.12;99284.75;5078167;28;20045;-80
2022/04/22 11:57:50;;;;;;;;;;;;;;;20.46;38.05;99296.47;5076720;28;20044;-80
2022/04/22 12:05:59;;;;;;;8.57;7.53;;;;;;;20.23;38.67;99294.94;5068620;28;20083;-79
2022/04/22 12:08:28;;;;;;;7.88;7.07;;;;;;;20.29;38.57;99289.66;5083178;28;20055;-79
2022/04/22 12:10:55;;;;;;;8.02;6.82;;;;;;;20.42;38.88;99287.19;5078957;28;20048;-80
2022/04/22 12:13:25;;;;;;;9.35;8.30;;;;;;;20.37;39.12;99282.78;5079577;28;20048;-80
2022/04/22 12:15:54;;;;;;;10.50;9.00;;;;;;;20.65;39.03;99281.03;5079282;28;20067;-79
2022/04/22 12:18:29;;;;;;;10.93;8.82;;;;;;;21.05;38.25;99288.06;5080395;28;20052;-80
2022/04/22 12:20:57;;;;;;;10.52;9.27;;;;;;;21.42;37.92;99278.13;5073647;28;20480;-81
2022/04/22 12:23:37;;;;;;;8.98;7.75;;;;;;;22.33;36.35;99272.38;5073188;28;20056;-80
2022/04/22 12:26:14;;;;;;;9.02;8.15;;;;;;;22.96;35.05;99271.94;5076870;28;20060;-82
2022/04/22 12:28:57;;;;;;;9.30;8.40;;;;;;;24.18;33.96;99261.34;5077372;28;20055;-84
2022/04/22 12:31:25;;;;;;;8.95;8.07;;;;;;;25.00;32.77;99262.41;5073930;28;20485;-81
2022/04/22 12:33:58;;;;;;;8.98;8.18;;;;;;;26.31;30.47;99250.91;5070966;28;20041;-82
2022/04/22 12:36:26;;;;;;;9.52;8.48;;;;;;;26.79;28.93;99256.06;5067246;28;20095;-81
2022/04/22 12:38:55;;;;;;;10.20;9.27;;;;;;;27.43;28.35;99256.88;5073992;28;20048;-81
2022/04/22 12:41:23;;;;;;;9.55;8.75;;;;;;;28.06;27.88;99245.72;5075093;28;20075;-78